Time;durP1;ratioP1;P1;durP2;ratioP2;P2;SDS_P1;SDS_P2;PMS_P1;PMS_P2;Temp;Humidity;BMP_temperature;BMP_pressure;BME280_temperature;BME280_humidity;BME280_pressure;Samples;Min_cycle;Max_cycle;Signal;HPM_P1;HPM_P2
2022/10/29 00:02:06;;;;;;;;;;;16.30;99.90;;;;;;7335478;19;116672;-77
2022/10/29 00:04:33;;;;;;;;;;;16.30;99.90;;;;;;7332796;19;110659;-77
2022/10/29 00:07:00;;;;;;;;;;;16.30;99.90;;;;;;7340437;19;110519;-77
2022/10/29 00:09:27;;;;;;;;;;;16.30;99.90;;;;;;7332213;19;110755;-77
2022/10/29 00:11:54;;;;;;;;;;;16.20;99.90;;;;;;7334258;19;113053;-77
2022/10/29 00:14:21;;;;;;;;;;;16.20;99.90;;;;;;7334648;19;109074;-77
2022/10/29 00:16:47;;;;;;;;;;;16.20;99.90;;;;;;7332437;19;110899;-77
2022/10/29 00:19:14;;;;;;;;;;;16.20;99.90;;;;;;7336460;19;110376;-77
2022/10/29 00:21:41;;;;;;;;;;;16.20;99.90;;;;;;7333583;19;109030;-77
2022/10/29 00:24:09;;;;;;;;;;;16.20;99.90;;;;;;7334133;19;109071;-77
2022/10/29 00:26:36;;;;;;;;;;;16.10;99.90;;;;;;7333770;19;110340;-77
2022/10/29 00:29:02;;;;;;;;;;;16.10;99.90;;;;;;7341058;19;108963;-77
2022/10/29 00:31:30;;;;;;;;;;;16.10;99.90;;;;;;7331004;19;114045;-77
2022/10/29 00:33:57;;;;;;;;;;;16.10;99.90;;;;;;7333715;19;108907;-77
2022/10/29 00:36:25;;;;;;;;;;;16.10;99.90;;;;;;7329847;19;110923;-77
2022/10/29 00:38:53;;;;;;;;;;;16.00;99.90;;;;;;7333749;19;110274;-77
2022/10/29 00:41:20;;;;;;;;;;;16.00;99.90;;;;;;7333564;19;108488;-77
2022/10/29 00:43:52;;;;;;;;;;;16.00;99.90;;;;;;7334850;19;110130;-77
2022/10/29 00:46:45;;;;;;;;;;;15.90;99.90;;;;;;7330953;19;109362;-77
2022/10/29 00:49:12;;;;;;;;;;;15.90;99.90;;;;;;7333462;19;109521;-77
2022/10/29 00:51:39;;;;;;;;;;;15.90;99.90;;;;;;7339280;19;109615;-77
2022/10/29 00:54:10;;;;;;;;;;;15.90;99.90;;;;;;7332976;19;109544;-77
2022/10/29 00:56:39;;;;;;;;;;;15.90;99.90;;;;;;7338027;19;108830;-77
2022/10/29 00:59:06;;;;;;;;;;;15.90;99.90;;;;;;7340618;19;112729;-77
2022/10/29 01:01:33;;;;;;;;;;;15.90;99.90;;;;;;7338938;19;110066;-77
2022/10/29 01:04:01;;;;;;;;;;;15.80;99.90;;;;;;7340367;19;109404;-77
2022/10/29 01:06:29;;;;;;;;;;;15.80;99.90;;;;;;7338352;19;112104;-77
2022/10/29 01:08:56;;;;;;;;;;;15.80;99.90;;;;;;7341824;19;108519;-77
2022/10/29 01:11:26;;;;;;;;;;;15.80;99.90;;;;;;7337545;19;108982;-77
2022/10/29 01:14:16;;;;;;;;;;;15.70;99.90;;;;;;7345566;19;109351;-77
2022/10/29 01:16:54;;;;;;;;;;;15.70;99.90;;;;;;7340024;19;109253;-77
2022/10/29 01:19:39;;;;;;;;;;;15.70;99.90;;;;;;7340293;19;110359;-77
2022/10/29 01:22:18;;;;;;;;;;;15.60;99.90;;;;;;7340252;19;109524;-77
2022/10/29 01:24:51;;;;;;;;;;;15.60;99.90;;;;;;7338332;19;109290;-77
2022/10/29 01:27:29;;;;;;;;;;;15.60;99.90;;;;;;7337302;19;113326;-78
2022/10/29 01:30:14;;;;;;;;;;;15.60;99.90;;;;;;7340262;19;109037;-77
2022/10/29 01:32:44;;;;;;;;;;;15.60;99.90;;;;;;7339950;19;112334;-77
2022/10/29 01:35:23;;;;;;;;;;;15.60;99.90;;;;;;7339121;19;114723;-77
2022/10/29 01:37:53;;;;;;;;;;;15.60;99.90;;;;;;7345149;19;109118;-77
2022/10/29 01:40:24;;;;;;;;;;;15.60;99.90;;;;;;7337780;19;110110;-77
2022/10/29 01:42:56;;;;;;;;;;;15.70;99.90;;;;;;7337209;19;108857;-77
2022/10/29 01:45:32;;;;;;;;;;;15.60;99.90;;;;;;7339862;19;109455;-77
2022/10/29 01:48:01;;;;;;;;;;;15.60;99.90;;;;;;7339157;19;110396;-77
2022/10/29 01:50:28;;;;;;;;;;;15.60;99.90;;;;;;7338730;19;108359;-78
2022/10/29 01:52:55;;;;;;;;;;;15.60;99.90;;;;;;7339725;19;109181;-77
2022/10/29 01:55:28;;;;;;;;;;;15.60;99.90;;;;;;7338471;19;110261;-78
2022/10/29 01:57:55;;;;;;;;;;;15.60;99.90;;;;;;7341360;19;109934;-77
2022/10/29 02:00:23;;;;;;;;;;;15.60;99.90;;;;;;7335443;19;109146;-77
2022/10/29 02:03:08;;;;;;;;;;;15.60;99.90;;;;;;7337458;19;109745;-77
2022/10/29 02:05:47;;;;;;;;;;;15.60;99.90;;;;;;7340970;19;109680;-78
2022/10/29 02:08:14;;;;;;;;;;;15.60;99.90;;;;;;7337820;19;109940;-77
2022/10/29 02:10:52;;;;;;;;;;;15.60;99.90;;;;;;7336283;19;108668;-77
2022/10/29 02:13:21;;;;;;;;;;;15.60;99.90;;;;;;7337562;19;109041;-78
2022/10/29 02:15:51;;;;;;;;;;;15.60;99.90;;;;;;7336558;19;111970;-78
2022/10/29 02:18:18;;;;;;;;;;;15.60;99.90;;;;;;7336722;19;111453;-77
2022/10/29 02:20:45;;;;;;;;;;;15.60;99.90;;;;;;7343353;19;109942;-77
2022/10/29 02:23:13;;;;;;;;;;;15.60;99.90;;;;;;7336983;19;108812;-78
2022/10/29 02:25:40;;;;;;;;;;;15.60;99.90;;;;;;7337086;19;109664;-78
2022/10/29 02:28:07;;;;;;;;;;;15.60;99.90;;;;;;7336409;19;110233;-79
2022/10/29 02:30:34;;;;;;;;;;;15.60;99.90;;;;;;7337117;19;108844;-77
2022/10/29 02:33:01;;;;;;;;;;;15.60;99.90;;;;;;7337832;19;110295;-77
2022/10/29 02:35:28;;;;;;;;;;;15.60;99.90;;;;;;7336225;19;110737;-78
2022/10/29 02:37:54;;;;;;;;;;;15.50;99.90;;;;;;7338877;19;108898;-77
2022/10/29 02:40:21;;;;;;;;;;;15.50;99.90;;;;;;7335541;19;108984;-77
2022/10/29 02:42:48;;;;;;;;;;;15.50;99.90;;;;;;7341025;19;110398;-77
2022/10/29 02:45:15;;;;;;;;;;;15.50;99.90;;;;;;7337470;19;112384;-78
2022/10/29 02:47:42;;;;;;;;;;;15.50;99.90;;;;;;7339976;19;109346;-77
2022/10/29 02:50:09;;;;;;;;;;;15.50;99.90;;;;;;7336086;19;108615;-78
2022/10/29 02:52:36;;;;;;;;;;;15.50;99.90;;;;;;7334573;19;109096;-79
2022/10/29 02:55:03;;;;;;;;;;;15.40;99.90;;;;;;7336070;19;109704;-79
2022/10/29 02:57:29;;;;;;;;;;;15.40;99.90;;;;;;7336890;19;109239;-78
2022/10/29 02:59:56;;;;;;;;;;;15.40;99.90;;;;;;7339102;19;111306;-78
2022/10/29 03:02:23;;;;;;;;;;;15.40;99.90;;;;;;7333345;19;110442;-78
2022/10/29 03:04:50;;;;;;;;;;;15.40;99.90;;;;;;7341429;19;108653;-78
2022/10/29 03:07:17;;;;;;;;;;;15.40;99.90;;;;;;7336079;19;110887;-78
2022/10/29 03:09:44;;;;;;;;;;;15.50;99.90;;;;;;7337031;19;109528;-79
2022/10/29 03:12:11;;;;;;;;;;;15.50;99.90;;;;;;7337105;19;109483;-78
2022/10/29 03:14:38;;;;;;;;;;;15.50;99.90;;;;;;7335819;19;114107;-78
2022/10/29 03:17:05;;;;;;;;;;;15.50;99.90;;;;;;7336914;19;109150;-78
2022/10/29 03:19:32;;;;;;;;;;;15.50;99.90;;;;;;7334368;19;109605;-78
2022/10/29 03:21:59;;;;;;;;;;;15.50;99.90;;;;;;7336875;19;109194;-78
2022/10/29 03:24:25;;;;;;;;;;;15.40;99.90;;;;;;7334773;19;110028;-77
2022/10/29 03:26:52;;;;;;;;;;;15.50;99.90;;;;;;7342053;19;110331;-77
2022/10/29 03:29:19;;;;;;;;;;;15.50;99.90;;;;;;7335034;19;108796;-78
2022/10/29 03:31:46;;;;;;;;;;;15.50;99.90;;;;;;7337239;19;110118;-77
2022/10/29 03:34:13;;;;;;;;;;;15.50;99.90;;;;;;7335388;19;110315;-77
2022/10/29 03:36:40;;;;;;;;;;;15.50;99.90;;;;;;7336341;19;109509;-77
2022/10/29 03:39:07;;;;;;;;;;;15.50;99.90;;;;;;7337806;19;109503;-77
2022/10/29 03:41:33;;;;;;;;;;;15.60;99.90;;;;;;7333281;19;109296;-78
2022/10/29 03:44:00;;;;;;;;;;;15.60;99.90;;;;;;7332358;19;108516;-77
2022/10/29 03:46:28;;;;;;;;;;;15.60;99.90;;;;;;7334522;19;111947;-78
2022/10/29 03:48:54;;;;;;;;;;;15.50;99.90;;;;;;7340502;19;113596;-77
2022/10/29 03:51:21;;;;;;;;;;;15.60;99.90;;;;;;7336042;19;109421;-77
2022/10/29 03:53:48;;;;;;;;;;;15.60;99.90;;;;;;7334071;19;110355;-77
2022/10/29 03:56:15;;;;;;;;;;;15.60;99.90;;;;;;7333367;19;108639;-77
2022/10/29 03:58:42;;;;;;;;;;;15.70;99.90;;;;;;7336090;19;108503;-77
2022/10/29 04:01:09;;;;;;;;;;;15.70;99.90;;;;;;7334810;19;110310;-77
2022/10/29 04:03:37;;;;;;;;;;;15.70;99.90;;;;;;7334232;19;111146;-77
2022/10/29 04:06:09;;;;;;;;;;;15.70;99.90;;;;;;7334330;19;109322;-77
2022/10/29 04:08:36;;;;;;;;;;;15.70;99.90;;;;;;7339379;19;109828;-78
2022/10/29 04:11:03;;;;;;;;;;;15.70;99.90;;;;;;7334867;19;108652;-77
2022/10/29 04:13:30;;;;;;;;;;;15.80;99.90;;;;;;7333879;19;110066;-77
2022/10/29 04:15:57;;;;;;;;;;;15.80;99.90;;;;;;7334194;19;110090;-78
2022/10/29 04:18:24;;;;;;;;;;;15.80;99.90;;;;;;7333198;19;108721;-78
2022/10/29 04:20:52;;;;;;;;;;;15.80;99.90;;;;;;7333400;19;109696;-77
2022/10/29 04:23:39;;;;;;;;;;;15.90;99.90;;;;;;7334656;19;108626;-77
2022/10/29 04:26:26;;;;;;;;;;;15.90;99.90;;;;;;7333578;19;109418;-77
2022/10/29 04:29:13;;;;;;;;;;;15.90;99.90;;;;;;7334701;19;111507;-77
2022/10/29 04:31:40;;;;;;;;;;;15.90;99.90;;;;;;7343587;19;109576;-77
2022/10/29 04:34:07;;;;;;;;;;;15.90;99.90;;;;;;7339574;19;110351;-77
2022/10/29 04:36:34;;;;;;;;;;;15.90;99.90;;;;;;7341253;19;110202;-77
2022/10/29 04:39:01;;;;;;;;;;;15.90;99.90;;;;;;7341529;19;109182;-77
2022/10/29 04:41:27;;;;;;;;;;;16.00;99.90;;;;;;7339698;19;110167;-78
2022/10/29 04:43:54;;;;;;;;;;;16.00;99.90;;;;;;7341336;19;108514;-77
2022/10/29 04:46:21;;;;;;;;;;;16.00;99.90;;;;;;7338436;19;109761;-77
2022/10/29 04:48:48;;;;;;;;;;;16.00;99.90;;;;;;7339813;19;111577;-78
2022/10/29 04:51:23;;;;;;;;;;;16.10;99.90;;;;;;7340532;19;108960;-78
2022/10/29 04:53:50;;;;;;;;;;;16.10;99.90;;;;;;7345809;19;108993;-79
2022/10/29 04:56:17;;;;;;;;;;;16.00;99.90;;;;;;7340518;19;108601;-77
2022/10/29 04:58:44;;;;;;;;;;;16.10;99.90;;;;;;7342529;19;109624;-79
2022/10/29 05:01:11;;;;;;;;;;;16.10;99.90;;;;;;7339610;19;110329;-78
2022/10/29 05:03:38;;;;;;;;;;;16.00;99.90;;;;;;7340660;19;108913;-79
2022/10/29 05:06:05;;;;;;;;;;;16.00;99.90;;;;;;7341216;19;109426;-78
2022/10/29 05:08:32;;;;;;;;;;;16.10;99.90;;;;;;7337754;19;110524;-78
2022/10/29 05:11:03;;;;;;;;;;;16.10;99.90;;;;;;7338800;19;108940;-78
2022/10/29 05:13:30;;;;;;;;;;;16.10;99.90;;;;;;7339846;19;112874;-78
2022/10/29 05:15:57;;;;;;;;;;;16.00;99.90;;;;;;7342696;19;110322;-77
2022/10/29 05:18:24;;;;;;;;;;;16.10;99.90;;;;;;7337327;19;109339;-77
2022/10/29 05:20:52;;;;;;;;;;;16.10;99.90;;;;;;7341565;19;110245;-78
2022/10/29 05:23:19;;;;;;;;;;;16.20;99.90;;;;;;7343559;19;109026;-78
2022/10/29 05:25:50;;;;;;;;;;;16.20;99.90;;;;;;7338611;19;109277;-78
2022/10/29 05:28:19;;;;;;;;;;;16.20;99.90;;;;;;7337573;19;110219;-78
2022/10/29 05:30:47;;;;;;;;;;;16.20;99.90;;;;;;7339533;19;108518;-78
2022/10/29 05:33:15;;;;;;;;;;;16.20;99.90;;;;;;7339992;19;110071;-78
2022/10/29 05:35:42;;;;;;;;;;;16.20;99.90;;;;;;7340251;19;110378;-77
2022/10/29 05:38:10;;;;;;;;;;;16.20;99.90;;;;;;7345001;19;111511;-78
2022/10/29 05:40:37;;;;;;;;;;;16.30;99.90;;;;;;7336594;19;110206;-78
2022/10/29 05:43:04;;;;;;;;;;;16.30;99.90;;;;;;7338729;19;108312;-77
2022/10/29 05:45:31;;;;;;;;;;;16.30;99.90;;;;;;7335218;19;108874;-77
2022/10/29 05:47:59;;;;;;;;;;;16.30;99.90;;;;;;7339328;19;110265;-78
2022/10/29 05:50:26;;;;;;;;;;;16.40;99.90;;;;;;7336591;19;109399;-78
2022/10/29 05:52:57;;;;;;;;;;;16.40;99.90;;;;;;7339392;19;109184;-78
2022/10/29 05:55:25;;;;;;;;;;;16.30;99.90;;;;;;7340323;19;110301;-78
2022/10/29 05:57:59;;;;;;;;;;;16.30;99.90;;;;;;7339588;19;109133;-78
2022/10/29 06:00:27;;;;;;;;;;;16.30;99.90;;;;;;7342669;19;108701;-78
2022/10/29 06:02:54;;;;;;;;;;;16.30;99.90;;;;;;7339533;19;109081;-78
2022/10/29 06:05:22;;;;;;;;;;;16.30;99.90;;;;;;7337655;19;109298;-78
2022/10/29 06:07:56;;;;;;;;;;;16.20;99.90;;;;;;7337577;19;109361;-78
2022/10/29 06:10:23;;;;;;;;;;;16.20;99.90;;;;;;7338678;19;108279;-78
2022/10/29 06:12:51;;;;;;;;;;;16.20;99.90;;;;;;7339609;19;109971;-78
2022/10/29 06:15:17;;;;;;;;;;;16.20;99.90;;;;;;7339027;19;110718;-78
2022/10/29 06:17:44;;;;;;;;;;;16.20;99.90;;;;;;7336844;19;110356;-78
2022/10/29 06:20:12;;;;;;;;;;;16.10;99.90;;;;;;7342576;19;112373;-78
2022/10/29 06:22:42;;;;;;;;;;;16.10;99.90;;;;;;7337526;19;108750;-78
2022/10/29 06:25:09;;;;;;;;;;;16.10;99.90;;;;;;7339172;19;109216;-78
2022/10/29 06:27:36;;;;;;;;;;;16.10;99.90;;;;;;7334544;19;110066;-78
2022/10/29 06:30:03;;;;;;;;;;;16.10;99.90;;;;;;7336876;19;108469;-78
2022/10/29 06:32:30;;;;;;;;;;;16.10;99.90;;;;;;7333751;19;108552;-78
2022/10/29 06:34:57;;;;;;;;;;;16.00;99.90;;;;;;7338297;19;109038;-78
2022/10/29 06:37:24;;;;;;;;;;;16.00;99.90;;;;;;7335698;19;110258;-78
2022/10/29 06:39:51;;;;;;;;;;;16.00;99.90;;;;;;7339879;19;109589;-78
2022/10/29 06:42:18;;;;;;;;;;;16.10;99.90;;;;;;7342568;19;110413;-78
2022/10/29 06:44:44;;;;;;;;;;;16.10;99.90;;;;;;7339559;19;109915;-78
2022/10/29 06:47:11;;;;;;;;;;;16.10;99.90;;;;;;7339412;19;114056;-77
2022/10/29 06:49:38;;;;;;;;;;;16.10;99.90;;;;;;7335852;19;110401;-78
2022/10/29 06:52:05;;;;;;;;;;;16.10;99.90;;;;;;7337466;19;109203;-78
2022/10/29 06:54:32;;;;;;;;;;;16.00;99.90;;;;;;7333191;19;114344;-77
2022/10/29 06:56:59;;;;;;;;;;;16.10;99.90;;;;;;7340359;19;108231;-78
2022/10/29 06:59:26;;;;;;;;;;;16.00;99.90;;;;;;7335945;19;109887;-77
2022/10/29 07:01:53;;;;;;;;;;;16.10;99.90;;;;;;7336120;19;110569;-77
2022/10/29 07:04:20;;;;;;;;;;;16.10;99.90;;;;;;7339703;19;108778;-78
2022/10/29 07:06:47;;;;;;;;;;;16.10;99.90;;;;;;7337398;19;111020;-78
2022/10/29 07:09:14;;;;;;;;;;;16.20;99.90;;;;;;7338707;19;108655;-78
2022/10/29 07:11:41;;;;;;;;;;;16.20;99.90;;;;;;7337773;19;109771;-78
2022/10/29 07:14:08;;;;;;;;;;;16.20;99.90;;;;;;7334617;19;109532;-77
2022/10/29 07:16:36;;;;;;;;;;;16.20;99.90;;;;;;7335836;19;108624;-77
2022/10/29 07:19:03;;;;;;;;;;;16.20;99.90;;;;;;7337383;19;108442;-78
2022/10/29 07:21:30;;;;;;;;;;;16.20;99.90;;;;;;7336500;19;113560;-78
2022/10/29 07:23:57;;;;;;;;;;;16.30;99.90;;;;;;7336698;19;108799;-78
2022/10/29 07:26:24;;;;;;;;;;;16.30;99.90;;;;;;7339638;19;109421;-78
2022/10/29 07:28:55;;;;;;;;;;;16.30;99.90;;;;;;7336637;19;108271;-78
2022/10/29 07:31:22;;;;;;;;;;;16.40;99.90;;;;;;7336789;19;109457;-78
2022/10/29 07:33:49;;;;;;;;;;;16.40;99.90;;;;;;7333676;19;110453;-78
2022/10/29 07:36:16;;;;;;;;;;;16.50;99.90;;;;;;7335628;19;108308;-78
2022/10/29 07:38:43;;;;;;;;;;;16.50;99.90;;;;;;7336016;19;109352;-78
2022/10/29 07:41:10;;;;;;;;;;;16.60;99.90;;;;;;7334430;19;110198;-78
2022/10/29 07:43:37;;;;;;;;;;;16.60;99.90;;;;;;7334505;19;108889;-78
2022/10/29 07:46:04;;;;;;;;;;;16.60;99.90;;;;;;7337202;19;109556;-78
2022/10/29 07:48:31;;;;;;;;;;;16.60;99.90;;;;;;7339296;19;110296;-78
2022/10/29 07:50:59;;;;;;;;;;;16.70;99.90;;;;;;7333565;19;109242;-78
2022/10/29 07:53:26;;;;;;;;;;;16.70;99.90;;;;;;7333982;19;110410;-78
2022/10/29 07:55:54;;;;;;;;;;;16.80;99.90;;;;;;7335407;19;108885;-78
2022/10/29 07:58:21;;;;;;;;;;;16.80;99.90;;;;;;7333780;19;109177;-78
2022/10/29 08:00:48;;;;;;;;;;;16.80;99.90;;;;;;7337290;19;110255;-78
2022/10/29 08:03:15;;;;;;;;;;;16.90;99.90;;;;;;7334831;19;108430;-78
2022/10/29 08:05:42;;;;;;;;;;;17.00;99.90;;;;;;7335893;19;109413;-78
2022/10/29 08:08:09;;;;;;;;;;;17.00;99.90;;;;;;7335509;19;109575;-78
2022/10/29 08:10:36;;;;;;;;;;;17.10;99.90;;;;;;7340108;19;108416;-78
2022/10/29 08:13:04;;;;;;;;;;;17.20;99.90;;;;;;7332578;19;109585;-78
2022/10/29 08:15:31;;;;;;;;;;;17.20;99.90;;;;;;7334937;19;108423;-78
2022/10/29 08:17:58;;;;;;;;;;;17.20;99.90;;;;;;7334857;19;109589;-78
2022/10/29 08:20:27;;;;;;;;;;;17.30;99.90;;;;;;7333421;19;110005;-78
2022/10/29 08:22:54;;;;;;;;;;;17.30;99.90;;;;;;7336096;19;108527;-78
2022/10/29 08:25:22;;;;;;;;;;;17.40;99.90;;;;;;7332616;19;109030;-78
2022/10/29 08:27:58;;;;;;;;;;;17.40;99.90;;;;;;7333355;19;110176;-78
2022/10/29 08:30:25;;;;;;;;;;;17.50;99.90;;;;;;7339261;19;109121;-78
2022/10/29 08:32:52;;;;;;;;;;;17.50;99.90;;;;;;7337761;19;109364;-78
2022/10/29 08:35:20;;;;;;;;;;;17.60;99.90;;;;;;7333789;19;109245;-78
2022/10/29 08:37:47;;;;;;;;;;;17.60;99.90;;;;;;7334321;19;110890;-77
2022/10/29 08:40:27;;;;;;;;;;;17.70;99.90;;;;;;7332881;19;109604;-78
2022/10/29 08:43:01;;;;;;;;;;;17.70;99.90;;;;;;7333747;19;109533;-77
2022/10/29 08:45:38;;;;;;;;;;;17.80;99.90;;;;;;7333189;19;110580;-78
2022/10/29 08:48:08;;;;;;;;;;;17.80;99.90;;;;;;7332484;19;109413;-78
2022/10/29 08:50:40;;;;;;;;;;;18.00;99.90;;;;;;7332628;19;108330;-78
2022/10/29 08:53:17;;;;;;;;;;;18.10;99.90;;;;;;7336893;19;108911;-78
2022/10/29 08:55:49;;;;;;;;;;;18.20;99.90;;;;;;7334175;19;108777;-78
2022/10/29 08:58:28;;;;;;;;;;;18.20;99.90;;;;;;7332088;19;109357;-77
2022/10/29 09:00:56;;;;;;;;;;;18.40;99.90;;;;;;7334449;19;109334;-77
2022/10/29 09:03:25;;;;;;;;;;;18.50;99.90;;;;;;7332929;19;109751;-77
2022/10/29 09:06:11;;;;;;;;;;;18.70;99.90;;;;;;7332898;19;110195;-77
2022/10/29 09:08:56;;;;;;;;;;;18.80;99.90;;;;;;7334086;19;109374;-77
2022/10/29 09:11:41;;;;;;;;;;;18.90;99.90;;;;;;7332361;19;109653;-77
2022/10/29 09:14:27;;;;;;;;;;;18.90;99.90;;;;;;7336289;19;109832;-77
2022/10/29 09:16:59;;;;;;;;;;;19.00;99.90;;;;;;7342553;19;110266;-78
2022/10/29 09:19:49;;;;;;;;;;;19.00;99.90;;;;;;7340113;19;108722;-78
2022/10/29 09:22:21;;;;;;;;;;;19.10;99.90;;;;;;7342903;19;112408;-77
2022/10/29 09:24:48;;;;;;;;;;;19.20;99.90;;;;;;7342660;19;108648;-77
2022/10/29 09:27:34;;;;;;;;;;;19.30;99.90;;;;;;7339972;19;109296;-78
2022/10/29 09:30:00;;;;;;;;;;;19.40;99.90;;;;;;7344913;19;110056;-78
2022/10/29 09:32:47;;;;;;;;;;;19.50;99.90;;;;;;7340030;19;108600;-78
2022/10/29 09:35:16;;;;;;;;;;;19.70;99.90;;;;;;7342179;19;109121;-77
2022/10/29 09:37:46;;;;;;;;;;;19.80;99.90;;;;;;7345757;19;111390;-77
2022/10/29 09:40:21;;;;;;;;;;;19.90;99.90;;;;;;7346823;19;108273;-77
2022/10/29 09:42:49;;;;;;;;;;;20.00;99.90;;;;;;7340796;19;112265;-77
2022/10/29 09:45:17;;;;;;;;;;;20.10;99.90;;;;;;7340164;19;108914;-77
2022/10/29 09:47:44;;;;;;;;;;;20.20;99.90;;;;;;7340981;19;109159;-79
2022/10/29 09:50:11;;;;;;;;;;;20.20;99.90;;;;;;7343816;19;111380;-78
2022/10/29 09:52:39;;;;;;;;;;;20.30;99.90;;;;;;7342959;19;109052;-78
2022/10/29 09:55:10;;;;;;;;;;;20.30;99.90;;;;;;7344181;19;109847;-78
2022/10/29 09:57:38;;;;;;;;;;;20.40;99.90;;;;;;7340657;19;112514;-78
2022/10/29 10:00:14;;;;;;;;;;;20.40;99.90;;;;;;7342349;19;109752;-77
2022/10/29 10:02:41;;;;;;;;;;;20.40;99.90;;;;;;7343426;19;109130;-77
2022/10/29 10:05:11;;;;;;;;;;;20.40;99.90;;;;;;7339942;19;109433;-78
2022/10/29 10:07:39;;;;;;;;;;;20.40;99.90;;;;;;7335963;19;109290;-77
2022/10/29 10:10:07;;;;;;;;;;;20.40;99.90;;;;;;7338738;19;110190;-77
2022/10/29 10:12:36;;;;;;;;;;;20.50;99.90;;;;;;7338952;19;108476;-77
2022/10/29 10:15:05;;;;;;;;;;;20.50;99.90;;;;;;7340996;19;110501;-77
2022/10/29 10:17:50;;;;;;;;;;;20.60;99.90;;;;;;7342797;19;110478;-77
2022/10/29 10:20:24;;;;;;;;;;;20.70;99.90;;;;;;7337339;19;108680;-76
2022/10/29 10:22:51;;;;;;;;;;;20.80;99.90;;;;;;7343964;19;109772;-76
2022/10/29 10:25:31;;;;;;;;;;;20.90;99.90;;;;;;7338997;19;109349;-77
2022/10/29 10:28:01;;;;;;;;;;;20.90;99.90;;;;;;7335237;19;109300;-77
2022/10/29 10:30:28;;;;;;;;;;;20.90;99.90;;;;;;7336213;19;109627;-77
2022/10/29 10:33:09;;;;;;;;;;;21.00;99.90;;;;;;7337536;19;108779;-77
2022/10/29 10:35:36;;;;;;;;;;;21.00;99.90;;;;;;7338068;19;110388;-77
2022/10/29 10:38:07;;;;;;;;;;;21.00;99.90;;;;;;7338928;19;109728;-77
2022/10/29 10:40:34;;;;;;;;;;;21.10;99.90;;;;;;7336522;19;108472;-77
2022/10/29 10:43:02;;;;;;;;;;;21.10;99.90;;;;;;7337995;19;109571;-77
2022/10/29 10:45:38;;;;;;;;;;;21.10;99.90;;;;;;7342140;19;109330;-77
2022/10/29 10:48:09;;;;;;;;;;;21.10;99.90;;;;;;7336661;19;109177;-77
2022/10/29 10:50:36;;;;;;;;;;;21.20;99.90;;;;;;7335538;19;110475;-77
2022/10/29 10:53:24;;;;;;;;;;;21.20;99.90;;;;;;7333657;19;108963;-70
2022/10/29 10:55:52;;;;;;;;;;;21.30;99.90;;;;;;7323454;19;109233;-69
2022/10/29 10:58:30;;;;;;;;;;;21.50;99.90;;;;;;7334424;19;109358;-69
2022/10/29 11:01:00;;;;;;;;;;;21.60;99.90;;;;;;7335675;19;108757;-69
2022/10/29 11:03:31;;;;;;;;;;;21.70;99.90;;;;;;7331740;19;109419;-69
2022/10/29 11:06:06;;;;;;;;;;;21.80;99.90;;;;;;7334958;19;110329;-69
2022/10/29 11:08:52;;;;;;;;;;;21.90;99.90;;;;;;7340390;19;108884;-69
2022/10/29 11:11:24;;;;;;;;;;;22.10;99.90;;;;;;7335819;19;110307;-69
2022/10/29 11:13:51;;;;;;;;;;;22.20;99.90;;;;;;7338064;19;108862;-69
2022/10/29 11:16:27;;;;;;;;;;;22.40;99.90;;;;;;7336542;19;109205;-71
2022/10/29 11:19:06;;;;;;;;;;;22.40;99.90;;;;;;7334638;19;110218;-70
2022/10/29 11:21:56;;;;;;;;;;;22.60;99.90;;;;;;7331426;19;108877;-70
2022/10/29 11:24:26;;;;;;;;;;;22.80;99.90;;;;;;7332379;19;109204;-70
2022/10/29 11:27:00;;;;;;;;;;;22.80;99.90;;;;;;7333359;19;129673;-70
2022/10/29 11:29:29;;;;;;;;;;;23.00;99.90;;;;;;7335522;19;108822;-70
2022/10/29 11:32:05;;;;;;;;;;;23.10;99.90;;;;;;7341918;19;113255;-70
2022/10/29 11:34:42;;;;;;;;;;;23.20;99.90;;;;;;7332890;19;109753;-70
2022/10/29 11:37:09;;;;;;;;;;;23.30;99.90;;;;;;7336521;19;108627;-71
2022/10/29 11:39:42;;;;;;;;;;;23.40;99.90;;;;;;7334174;19;111195;-71
2022/10/29 11:42:09;;;;;;;;;;;23.50;99.90;;;;;;7333901;19;108718;-70
2022/10/29 11:44:37;;;;;;;;;;;23.60;99.90;;;;;;7335328;19;108442;-70
2022/10/29 11:47:08;;;;;;;;;;;23.70;99.90;;;;;;7335182;19;110374;-70
2022/10/29 11:49:54;;;;;;;;;;;23.70;99.90;;;;;;7335286;19;108544;-70
2022/10/29 11:52:39;;;;;;;;;;;23.80;99.90;;;;;;7335100;19;108688;-71
2022/10/29 11:55:24;;;;;;;;;;;24.00;99.90;;;;;;7339315;19;110321;-70
2022/10/29 11:57:53;;;;;;;;;;;24.20;99.90;;;;;;7336568;19;108630;-70
2022/10/29 12:00:22;;;;;;;;;;;24.40;99.90;;;;;;7335177;19;109865;-70
2022/10/29 12:02:58;;;;;;;;;;;24.50;99.90;;;;;;7337330;19;109406;-70
2022/10/29 12:05:38;;;;;;;;;;;24.60;99.90;;;;;;7335618;19;109099;-72
2022/10/29 12:08:20;;;;;;;;;;;24.80;99.90;;;;;;7335919;19;109579;-70
2022/10/29 12:11:05;;;;;;;;;;;24.80;99.90;;;;;;7336773;19;109433;-70
2022/10/29 12:13:55;;;;;;;;;;;24.90;99.90;;;;;;7335629;19;108623;-70
2022/10/29 12:16:29;;;;;;;;;;;25.00;99.90;;;;;;7335010;19;110367;-70
2022/10/29 12:19:08;;;;;;;;;;;25.10;99.90;;;;;;7341616;19;108629;-70
2022/10/29 12:21:41;;;;;;;;;;;25.20;99.90;;;;;;7333208;19;110552;-70
2022/10/29 12:24:14;;;;;;;;;;;25.30;99.90;;;;;;7334941;19;108505;-70
2022/10/29 12:26:54;;;;;;;;;;;25.40;99.90;;;;;;7333802;19;108804;-70
2022/10/29 12:29:46;;;;;;;;;;;25.40;99.90;;;;;;7335445;19;109329;-70
2022/10/29 12:32:32;;;;;;;;;;;25.40;99.90;;;;;;7333420;19;110137;-70
2022/10/29 12:35:01;;;;;;;;;;;25.50;99.90;;;;;;7333692;19;108449;-70
2022/10/29 12:37:36;;;;;;;;;;;25.60;99.90;;;;;;7334854;19;110354;-70
2022/10/29 12:40:24;;;;;;;;;;;25.70;99.90;;;;;;7340531;19;109197;-70
2022/10/29 12:42:51;;;;;;;;;;;25.80;99.90;;;;;;7336881;19;112055;-70
2022/10/29 12:45:18;;;;;;;;;;;25.90;99.90;;;;;;7338214;19;108529;-70
2022/10/29 12:47:58;;;;;;;;;;;25.90;99.90;;;;;;7337962;19;108757;-70
2022/10/29 12:50:31;;;;;;;;;;;25.90;99.90;;;;;;7337642;19;110528;-70
2022/10/29 12:53:10;;;;;;;;;;;25.90;99.90;;;;;;7346149;19;108337;-70
2022/10/29 12:55:37;;;;;;;;;;;25.80;99.90;;;;;;7343617;19;109184;-70
2022/10/29 12:58:23;;;;;;;;;;;25.70;99.90;;;;;;7340297;19;109540;-70
2022/10/29 13:00:49;;;;;;;;;;;25.60;99.90;;;;;;7342136;19;108897;-77
2022/10/29 13:03:35;;;;;;;;;;;25.40;99.90;;;;;;7344811;19;109368;-69
2022/10/29 13:06:26;;;;;;;;;;;25.30;99.90;;;;;;7343866;19;108505;-69
2022/10/29 13:08:56;;;;;;;;;;;25.20;99.90;;;;;;7334477;19;110145;-69
2022/10/29 13:11:43;;;;;;;;;;;25.10;99.90;;;;;;7340131;19;109221;-69
2022/10/29 13:14:11;;;;;;;;;;;25.00;99.90;;;;;;7341308;19;108364;-69
2022/10/29 13:16:39;;;;;;;;;;;25.00;99.90;;;;;;7340071;19;109970;-69
2022/10/29 13:19:13;;;;;;;;;;;24.90;99.90;;;;;;7338072;19;110655;-69
2022/10/29 13:21:55;;;;;;;;;;;24.90;99.90;;;;;;7341357;19;108487;-69
2022/10/29 13:24:23;;;;;;;;;;;24.80;99.90;;;;;;7340803;19;111151;-69
2022/10/29 13:26:54;;;;;;;;;;;24.70;99.90;;;;;;7346370;19;109124;-69
2022/10/29 13:29:40;;;;;;;;;;;24.70;99.90;;;;;;7340257;19;108399;-69
2022/10/29 13:32:07;;;;;;;;;;;24.60;99.90;;;;;;7339412;19;109511;-69
2022/10/29 13:34:53;;;;;;;;;;;24.70;99.90;;;;;;7338885;19;109013;-69
2022/10/29 13:37:39;;;;;;;;;;;24.60;99.90;;;;;;7339443;19;108909;-69
2022/10/29 13:40:21;;;;;;;;;;;24.60;99.90;;;;;;7340240;19;110989;-69
2022/10/29 13:43:01;;;;;;;;;;;24.60;99.90;;;;;;7340341;19;109033;-69
2022/10/29 13:45:29;;;;;;;;;;;24.60;99.90;;;;;;7340261;19;109285;-69
2022/10/29 13:48:06;;;;;;;;;;;24.60;99.90;;;;;;7340371;19;109636;-69
2022/10/29 13:50:33;;;;;;;;;;;24.60;99.90;;;;;;7342397;19;109477;-69
2022/10/29 13:53:02;;;;;;;;;;;24.50;99.90;;;;;;7339897;19;110523;-69
2022/10/29 13:55:32;;;;;;;;;;;24.50;99.90;;;;;;7335765;19;110352;-69
2022/10/29 13:58:01;;;;;;;;;;;24.50;99.90;;;;;;7338906;19;109269;-69
2022/10/29 14:00:29;;;;;;;;;;;24.50;99.90;;;;;;7338332;19;110363;-69
2022/10/29 14:02:58;;;;;;;;;;;24.50;99.90;;;;;;7335253;19;108737;-69
2022/10/29 14:05:37;;;;;;;;;;;24.60;99.90;;;;;;7337491;19;109896;-69
2022/10/29 14:08:12;;;;;;;;;;;24.60;99.90;;;;;;7338700;19;109313;-69
2022/10/29 14:10:39;;;;;;;;;;;24.60;99.90;;;;;;7340234;19;108411;-69
2022/10/29 14:13:18;;;;;;;;;;;24.70;99.90;;;;;;7345745;19;108174;-69
2022/10/29 14:16:08;;;;;;;;;;;24.70;99.90;;;;;;7342549;19;108378;-69
2022/10/29 14:18:39;;;;;;;;;;;24.80;99.90;;;;;;7338325;19;109765;-69
2022/10/29 14:21:11;;;;;;;;;;;24.80;99.90;;;;;;7339978;19;110368;-69
2022/10/29 14:23:39;;;;;;;;;;;24.90;99.90;;;;;;7336449;19;108812;-69
2022/10/29 14:26:14;;;;;;;;;;;24.90;99.90;;;;;;7336719;19;108342;-69